Zawiyat Shammas, Egypt
Current Conditions -  °F | °C
As of 9:00 AM on Sunday 26 Oct 2014 (Local Time) from HEMM Reporting Station
Few Clouds Few Clouds  
Wind Chill: 73°   Ceiling: Unl
Heat Index: 73°   Visibility: 6mi
Dew Point: 66°   Wind: 12mph
Humidity: 78%   Direction: 210°SSW
Pressure: 30"   Gusts: NA
Location:  31.52°N, 26.4°E
Report Text: HEMM 260700Z 21010KT 9999 FEW020 23/19 Q1016 NOSIG
Loading
Personal Weather Stations






























Interactive Weather Map
Tropical Storm Tracking
New forecast layout! Learn more

10-Day Weather Forecast

Advertisements
Track Severe Weather on mobile